Aviation Digital Data Service (ADDS)

Output produced by METARs form (0344 UTC 23 November 2017)
found at http://www.aviationweather.gov/adds/metars/
 
KABQ 222329Z 2300/2324 VRB05KT P6SM SCT250 
     FM230900 36006KT P6SM SCT250 
     FM232000 28005KT P6SM SCT250
       
KABY 222328Z 2300/2324 02006KT P6SM SCT025 
     FM230700 03003KT P6SM OVC020 
     FM231300 06005KT P6SM SCT030 BKN060
       
KACT 230259Z 2303/2324 VRB03KT P6SM SKC 
     FM231600 20007KT P6SM SCT300
       
KACV 222320Z 2300/2324 13008KT 6SM -RA SCT050 SCT080 OVC100 
     FM230300 15007KT 6SM -RA BR FEW035 BKN050 OVC080 
     TEMPO 2305/2309 5SM -RA BKN035 OVC050 
     FM230900 15008KT 4SM -RA BR SCT025 BKN030 OVC050 
     FM231200 17005KT 4SM -RA BR BKN015 OVC025 
     FM232000 19007KT 2SM -RA BR SCT008 OVC015
       
TAF KADW 230100Z 2301/2407 32009KT 9999 SKC QNH3012INS 
     BECMG 2314/2315 VRB06KT 9999 SKC QNH3006INS TX08/2319Z TNM01/2311Z
       
KAEG 222329Z 2300/2324 VRB05KT P6SM SCT250 
     FM230600 34006KT P6SM SCT250 
     FM232000 28005KT P6SM SCT250
       
KAEX 222325Z 2300/2324 36005KT P6SM SKC 
     FM230100 36003KT P6SM SKC 
     FM231800 36007KT P6SM SKC
       
KAFW 230259Z 2303/2324 VRB03KT P6SM SKC 
     FM231500 19006KT P6SM SCT300
       
KAGC 222332Z 2300/2324 32004KT P6SM BKN035 
     TEMPO 2300/2302 BKN028 
     FM230400 28004KT P6SM SCT250
       
KAGS 230317Z 2303/2324 05005KT P6SM BKN040
       
KAHN 230259Z 2303/2324 VRB03KT P6SM BKN250 
     FM230600 06003KT P6SM SCT040 
     FM230900 06005KT P6SM BKN035 
     FM231500 07006KT P6SM SCT045 
     FM231800 07005KT P6SM SCT250
       
KAIA 222322Z 2300/2324 28007KT P6SM SCT200
       
KALB 230129Z 2301/2324 33018G24KT P6SM FEW025 BKN040 
     FM230600 31007KT P6SM FEW200 
     FM231800 27006KT P6SM SCT130 
     FM232200 24005KT P6SM BKN100
       
KALS 222320Z 2300/2324 36006KT P6SM BKN200 
     FM230600 VRB04KT P6SM BKN200
       
KALW 222341Z 2300/2324 VRB04KT 1 1/2SM BR OVC004 
     TEMPO 2300/2303 1/4SM FG OVC002 
     FM230300 16007KT P6SM SCT090 BKN120 BKN150 
     TEMPO 2303/2304 3SM BR BKN004 BKN070 OVC110 
     FM230600 18010KT P6SM -RA BKN050 OVC070
       
KAMA 222320Z 2300/2324 VRB06KT P6SM BKN250
       
KANB 222334Z 2300/2324 32004KT P6SM BKN250 
     FM231200 03004KT P6SM BKN025
       
KAND 222339Z 2300/2324 VRB03KT P6SM BKN250 
     FM230600 05006KT P6SM SCT050 BKN250 
     FM232000 13003KT P6SM FEW040
       
KAOO 230329Z 2303/2324 31008KT P6SM OVC030 
     FM231300 26008KT P6SM BKN040
       
KAPA 222323Z 2300/2324 32011KT P6SM FEW090 SCT120 BKN220 
     FM230300 20006KT P6SM FEW090 SCT120 BKN220 
     FM231900 30011KT P6SM FEW120 BKN220
       
KAPF 222324Z 2300/2324 VRB03KT P6SM FEW030 SCT250 
     FM231300 13005KT P6SM VCSH SCT030 BKN060 
     FM231700 23013KT 5SM SHRA SCT030 BKN060
       
KAPN 222320Z 2300/2324 24004KT P6SM OVC035 
     FM230700 22007KT P6SM BKN060 BKN100 
     FM231200 23007KT P6SM OVC045 
     FM231600 24011G19KT P6SM OVC035
       
KARA 222325Z 2300/2324 36011KT P6SM SKC 
     FM230100 01004KT P6SM SKC 
     FM231700 25008KT P6SM SKC
       
KASD 222321Z 2300/2324 01007KT P6SM FEW250
       
KASE 230342Z 2304/2324 17004KT P6SM BKN060 
     FM232000 31004KT P6SM FEW100 SCT250
       
KASN 222334Z 2300/2324 34004KT P6SM SKC 
     FM231500 01006KT P6SM SCT025
       
KAST 222340Z 2300/2324 18015G25KT P6SM -RA BKN015 BKN025 OVC035 
     FM230700 18017G35KT 4SM -RADZ BR BKN015 OVC025 
     FM231400 23012G20KT P6SM -RA BKN025 OVC035
       
KATW 222325Z 2300/2324 21007KT P6SM OVC090 
     FM230500 22008KT 6SM -SN SCT025 OVC040 
     TEMPO 2307/2309 6SM -FZRA BR 
     FM230900 22007KT P6SM BKN050 
     FM231300 25008KT P6SM SCT250
       
KATL 230337Z 2304/2406 33006KT P6SM BKN250 
     FM230700 02005KT P6SM SCT030 
     FM231000 06007KT P6SM BKN030 
     FM231600 08008KT P6SM SCT035 
     FM231800 06007KT P6SM SCT250
       
KATY 230112Z 2301/2324 18007KT P6SM SKC 
     FM230400 VRB05KT P6SM SKC 
     FM231400 21011KT P6SM SCT250
       
KAUG 230109Z 2301/2324 31011KT P6SM OVC015 
     FM230300 34008KT P6SM BKN040 
     FM230500 33007KT P6SM SCT200
       
KAUS 222330Z 2300/2406 35005KT P6SM SCT250
       
KAUW 222325Z 2300/2324 21006KT P6SM SCT040 OVC080 
     TEMPO 2300/2304 -SN BKN040 
     FM230400 21006KT 4SM -SN SCT020 OVC035 
     TEMPO 2304/2306 2SM -SN BKN020 
     FM230600 20005KT 6SM -SN BR SCT020 OVC035 
     TEMPO 2306/2308 -FZRA 
     FM230800 22003KT P6SM BKN040 
     FM231200 27006KT P6SM SCT250
       
KAVL 222339Z 2300/2324 34007KT P6SM SCT250 
     FM230500 34003KT P6SM BKN250 
     FM232000 VRB03KT P6SM FEW250
       
KAVP 222321Z 2300/2324 34011G19KT P6SM OVC035 
     FM230400 32008KT P6SM OVC040 
     FM231900 26005KT P6SM SCT250
       
KAXN 222324Z 2300/2324 17009KT P6SM BKN070 
     FM230300 22005KT P6SM SCT100 
     FM230600 32006KT P6SM SKC 
     FM231400 20008KT P6SM FEW100
       
KAZO 230206Z 2302/2324 21006KT P6SM OVC120 
     FM232100 23006KT P6SM SKC